Main page
METAR-TAF:

METAR-TAF

Airports :

Humberside Airport

Humberside, England

latitude: 53-35N, longitude: 000-21W, elevation: 31 m

Current weather observation

The report was made 32 minutes ago, at 09:50 UTC
Wind 11 kt from the East/Northeast
Temperature 9°C
Humidity 81%
Pressure 1026 hPa
Visibility 10 km or more
Scattered clouds at a height of 2500 ft
Broken clouds at a height of 4000 ft
light rain showers

METAR: EGNJ 190950Z 07011KT 9999 -SHRA SCT025 BKN040 09/06 Q1026

Time: 10:22 (10:22 UTC)

Forecast

The report was made 2 hours and 22 minutes ago, at 08:00 UTC
Forecast valid from 19 at 09 UTC to 19 at 18 UTC
Wind 12 kt from the East/Northeast
Visibility 10 km or more
Scattered clouds at a height of 2000 ft
Temporary
from 19 at 09 UTC to 19 at 12 UTC
Visibility: 7000 m
rain showers
Temporary
from 19 at 12 UTC to 19 at 18 UTC
Wind 15 kt from the East with gusts up to 25 kt
Visibility: 7000 m
rain showers

TAF: EGNJ 190800Z 1909/1918 07012KT 9999 SCT020 TEMPO 1909/1912 7000 SHRA TEMPO 1912/1918 08015G25KT 7000 SHRA

Weather observations and forecasts of more than 4000 airports (METAR and TAF reports).

The available stations are represented by yellow and red dots on the map.

Hover mouse over dot to see the name of the station.

Then click to see weather observations and forecasts.

To change the map : click on the green buttons with a black cross to zoom in, on the green button with a dash to zoom out, or on the green arrows for adjacent maps.


METAR-TAF: